CheckWX is a tool to help pilots better visualize weather data.  It is not intended as a substitute for an official pre-flight weather briefing.

14:02:12 UTC

BIRK TAF
Reykjavik Airport
Reykjavik, Iceland
TAF BIRK 241014Z 2412/2512 28006KT 9999 SCT025 TX13/2415Z TN06/2503Z TEMPO 2501/2508 BKN012

May-24@
12:00 UTC

May-24 @ 12:00 UTC

May-25@
12:00 UTC

May-25 @ 12:00 UTC

TAF BIRK 241014Z 2412/2512 28006KT 9999 SCT025 TX13/2415Z TN06/2503Z
Wind
  • 280° at 6 KTS
Cloud Levels
  • Scattered at 2,500' AGL

May-25@
01:00 UTC

May-25 @ 01:00 UTC

May-25@
08:00 UTC

May-25 @ 08:00 UTC

TEMPO 2501/2508 BKN012

Temporary

Temporary Changes expected for less than half the time period

Cloud Levels
  • Broken at 1,200' AGL